Latest Weather Observations for Bairnsdale

IDV60801

Issued at 8:05 pm EST Sunday 21 September 2014 (issued every 30 minutes, with the page automatically refreshed every 10 minutes)

About weather observations | Map of weather stations | Latest weather observations for VIC | Other Formats
Station Details ID: 085279 Name: BAIRNSDALE AIRPORT Lat: -37.88 Lon: 147.57 Height: 49.4 m
Data from the previous 72 hours. | See also: Recent months at Bairnsdale
Date/Time
EST
Temp
°C
App
Temp
°C
Dew
Point
Rel
Hum
%
Delta-T
°C
Wind Press
QNH
hPa
Press
MSL
hPa
Rain
since 9 am
mm
Dir
 
Spd
km/h
Gust
km/h
Spd
kts
Gust
kts
21/08:00pm 8.1 6.1 6.9 92 0.6 NNE 7 7 4 4 1031.0 1031.0 0.0
21/07:30pm 7.9 5.9 6.2 89 0.8 NNE 6 7 3 4 1030.9 1030.9 0.0
21/07:00pm 8.6 6.6 6.4 86 1.0 NE 6 7 3 4 1030.6 1030.6 0.0
21/06:30pm 10.8 8.8 6.9 77 1.9 SSE 7 9 4 5 1030.2 1030.2 0.0
21/06:00pm 11.9 8.8 7.4 74 2.2 SSE 13 15 7 8 1029.8 1029.8 0.0
21/05:30pm 13.0 9.9 7.2 68 2.8 SSE 13 17 7 9 1029.6 1029.6 0.0
21/05:00pm 14.1 10.3 7.4 64 3.3 SSE 17 24 9 13 1029.5 1029.5 0.0
21/04:30pm 15.1 10.8 7.2 59 3.9 SSE 19 22 10 12 1029.1 1029.2 0.0
21/04:00pm 16.0 12.1 7.0 55 4.4 SSW 17 22 9 12 1028.9 1029.0 0.0
21/03:30pm 15.9 11.8 6.3 53 4.7 SSW 17 24 9 13 1028.9 1029.0 0.0
21/03:00pm 16.2 13.0 6.9 54 4.6 SW 13 24 7 13 1028.9 1029.0 0.0
21/02:30pm 15.7 12.4 6.4 54 4.5 WSW 13 19 7 10 1029.2 1029.3 0.0
21/02:00pm 16.0 12.1 7.2 56 4.3 SW 17 24 9 13 1029.5 1029.5 0.0
21/01:30pm 16.3 13.6 7.3 55 4.5 W 11 20 6 11 1029.8 1029.8 0.0
21/01:00pm 15.2 11.8 6.0 54 4.4 SW 13 24 7 13 1030.1 1030.1 0.0
21/12:30pm 14.7 10.8 5.2 53 4.5 WSW 15 24 8 13 1030.4 1030.4 0.0
21/12:00pm 15.1 11.7 6.1 55 4.3 WSW 13 20 7 11 1030.9 1030.9 0.0
21/11:30am 13.9 9.7 5.5 57 4.0 WSW 17 22 9 12 1031.3 1031.3 0.0
21/11:00am 13.5 9.6 5.2 57 3.8 W 15 20 8 11 1031.5 1031.5 0.0
21/10:30am 12.9 8.6 5.3 60 3.5 W 17 20 9 11 1031.7 1031.7 0.0
21/10:00am 12.7 8.7 5.1 60 3.5 W 15 22 8 12 1031.8 1031.8 0.0
21/09:30am 12.5 8.8 6.1 65 3.0 W 15 19 8 10 1031.9 1031.9 0.0
21/09:00am 12.1 8.5 6.6 69 2.6 W 15 20 8 11 1031.8 1031.8 0.0
21/08:30am 11.4 7.7 6.5 72 2.3 W 15 20 8 11 1031.7 1031.7 0.0
21/08:00am 10.9 7.7 6.8 76 1.9 WNW 13 17 7 9 1031.6 1031.6 0.0
21/07:30am 10.1 7.4 7.2 82 1.4 WNW 11 15 6 8 1031.3 1031.3 0.0
21/07:00am 8.5 6.4 6.5 87 0.9 NW 7 9 4 5 1031.0 1031.0 0.0
21/06:30am 8.2 5.1 5.7 84 1.1 NW 11 15 6 8 1030.7 1030.7 0.0
21/06:00am 8.2 4.3 5.5 83 1.2 WNW 15 17 8 9 1030.6 1030.6 0.0
21/05:30am 7.2 3.2 4.7 84 1.1 WNW 15 19 8 10 1030.3 1030.3 0.0
21/05:00am 6.9 2.5 4.6 85 1.0 W 17 20 9 11 1030.0 1030.0 0.0
21/04:30am 7.0 2.2 4.8 86 1.0 W 19 22 10 12 1029.8 1029.8 0.0
21/04:00am 7.0 2.6 4.8 86 1.0 W 17 22 9 12 1029.3 1029.4 0.0
21/03:30am 6.8 3.2 5.1 89 0.7 W 13 15 7 8 1029.2 1029.3 0.0
21/03:00am 6.6 3.3 4.8 88 0.8 W 11 15 6 8 1029.0 1029.1 0.0
21/02:30am 7.1 3.2 5.4 89 0.8 W 15 17 8 9 1029.2 1029.3 0.0
21/02:00am 6.8 3.0 5.6 92 0.5 W 15 17 8 9 1029.2 1029.3 0.0
21/01:30am 6.4 3.1 4.6 88 0.8 WNW 11 15 6 8 1029.6 1029.6 0.0
21/01:00am 7.5 4.1 6.0 90 0.7 WNW 13 17 7 9 1029.8 1029.8 0.0
21/12:30am 7.5 4.1 5.8 89 0.8 WNW 13 15 7 8 1029.7 1029.7 0.0
21/12:00am 8.4 5.1 6.4 87 0.9 WNW 13 17 7 9 1029.7 1029.7 0.0
 
Date/Time
EST
Temp
°C
App
Temp
°C
Dew
Point
Rel
Hum
%
Delta-T
°C
Wind Press
QNH
hPa
Press
MSL
hPa
Rain
since 9 am
mm
Dir
 
Spd
km/h
Gust
km/h
Spd
kts
Gust
kts
20/11:30pm 9.0 5.8 6.8 86 1.0 WNW 13 17 7 9 1029.8 1029.8 0.0
20/11:00pm 9.0 5.7 6.4 84 1.2 WNW 13 17 7 9 1029.9 1029.9 0.0
20/10:30pm 9.6 6.7 6.7 82 1.4 W 11 17 6 9 1029.9 1029.9 0.0
20/10:00pm 9.3 6.4 6.7 84 1.2 WSW 11 15 6 8 1029.7 1029.7 0.0
20/09:30pm 9.6 6.4 6.9 83 1.3 WSW 13 19 7 10 1029.8 1029.8 0.0
20/09:00pm 9.8 7.2 7.6 86 1.0 WSW 11 13 6 7 1029.9 1029.9 0.0
20/08:30pm 9.1 6.7 6.9 86 1.0 WSW 9 13 5 7 1029.7 1029.7 0.0
20/08:00pm 10.0 8.4 7.8 86 1.1 SW 6 7 3 4 1029.5 1029.5 0.0
20/07:30pm 10.1 8.9 8.2 88 0.9 SSW 4 6 2 3 1029.0 1029.1 0.0
20/07:00pm 9.4 7.3 6.8 84 1.2 SSW 7 9 4 5 1028.7 1028.8 0.0
20/06:30pm 11.2 9.1 8.1 81 1.5 S 9 13 5 7 1028.1 1028.2 0.0
20/06:00pm 11.7 8.4 8.0 78 1.8 S 15 19 8 10 1027.9 1028.0 0.0
20/05:30pm 12.3 8.7 8.4 77 1.9 S 17 20 9 11 1027.5 1027.6 0.0
20/05:00pm 13.1 9.6 8.6 74 2.2 S 17 20 9 11 1027.0 1027.1 0.0
20/04:30pm 13.8 9.9 8.6 71 2.6 S 19 28 10 15 1026.7 1026.8 0.0
20/04:00pm 14.0 9.8 8.4 69 2.8 S 20 24 11 13 1026.3 1026.4 0.0
20/03:30pm 14.1 9.6 8.7 70 2.7 S 22 28 12 15 1026.1 1026.2 0.0
20/03:00pm 14.8 11.0 9.2 69 2.9 S 19 22 10 12 1025.9 1026.0 0.0
20/02:30pm 14.0 10.7 8.0 67 3.0 S 15 19 8 10 1025.7 1025.8 0.0
20/02:00pm 14.5 11.3 8.5 67 3.0 S 15 24 8 13 1025.7 1025.8 0.0
20/01:30pm 14.3 10.2 7.8 65 3.2 S 19 24 10 13 1025.7 1025.8 0.0
20/01:00pm 15.0 12.0 7.5 61 3.7 SW 13 17 7 9 1025.7 1025.8 0.0
20/12:30pm 14.8 11.7 7.1 60 3.8 SW 13 19 7 10 1026.1 1026.2 0.0
20/12:00pm 14.7 11.8 8.2 65 3.2 WSW 13 19 7 10 1026.3 1026.4 0.0
20/11:30am 14.0 10.1 7.1 63 3.4 W 17 22 9 12 1026.5 1026.6 0.0
20/11:00am 14.5 10.8 8.0 65 3.2 WSW 17 24 9 13 1026.7 1026.8 0.0
20/10:30am 13.5 9.3 7.3 66 3.0 WSW 19 30 10 16 1026.9 1027.0 0.0
20/10:00am 13.3 9.1 7.3 67 2.9 WSW 19 30 10 16 1026.9 1027.0 0.0
20/09:30am 14.2 10.7 8.6 69 2.8 W 17 28 9 15 1027.0 1027.1 0.0
20/09:00am 13.0 8.9 7.9 71 2.5 W 19 26 10 14 1026.9 1027.0 0.0
20/08:30am 12.5 8.4 7.8 73 2.3 W 19 24 10 13 1026.7 1026.8 0.0
20/08:00am 11.2 6.3 6.7 74 2.1 W 22 28 12 15 1026.4 1026.5 0.0
20/07:30am 9.1 5.7 5.7 79 1.5 WNW 13 17 7 9 1026.3 1026.4 0.0
20/07:00am 8.6 5.1 5.4 80 1.4 NW 13 15 7 8 1026.0 1026.1 0.0
20/06:30am 7.2 3.2 4.9 85 1.0 WNW 15 17 8 9 1025.8 1025.9 0.0
20/06:00am 6.7 3.0 4.4 85 1.0 WNW 13 17 7 9 1025.2 1025.3 0.0
20/05:30am 7.0 2.9 4.3 83 1.2 WNW 15 19 8 10 1024.7 1024.8 0.0
20/05:00am 7.4 3.4 4.9 84 1.1 WNW 15 19 8 10 1024.4 1024.5 0.0
20/04:30am 8.2 4.8 5.7 84 1.1 WNW 13 17 7 9 1024.3 1024.4 0.0
20/04:00am 8.2 5.2 5.8 85 1.1 NW 11 17 6 9 1024.1 1024.2 0.0
20/03:30am 8.8 5.4 5.9 82 1.3 WNW 13 20 7 11 1024.1 1024.2 0.0
20/03:00am 8.8 4.6 5.9 82 1.3 WNW 17 22 9 12 1023.8 1023.9 0.0
20/02:30am 8.7 5.0 6.2 84 1.1 W 15 19 8 10 1023.8 1023.9 0.0
20/02:00am 8.5 4.3 5.6 82 1.3 W 17 24 9 13 1023.8 1023.9 0.0
20/01:30am 9.2 5.0 5.9 80 1.5 W 17 24 9 13 1024.0 1024.1 0.0
20/01:00am 10.0 4.9 6.0 76 1.8 W 22 30 12 16 1024.1 1024.2 0.0
20/12:30am 9.7 5.0 6.2 79 1.6 W 20 28 11 15 1023.9 1024.0 0.0
20/12:00am 8.7 4.9 5.6 81 1.4 W 15 20 8 11 1023.8 1023.9 0.0
 
Date/Time
EST
Temp
°C
App
Temp
°C
Dew
Point
Rel
Hum
%
Delta-T
°C
Wind Press
QNH
hPa
Press
MSL
hPa
Rain
since 9 am
mm
Dir
 
Spd
km/h
Gust
km/h
Spd
kts
Gust
kts
19/11:30pm 9.1 4.5 5.7 79 1.5 W 19 26 10 14 1023.8 1023.9 0.0
19/11:00pm 9.1 4.9 5.8 80 1.5 W 17 22 9 12 1023.9 1024.0 0.0
19/10:30pm 9.2 5.0 5.6 78 1.6 W 17 22 9 12 1023.9 1024.0 0.0
19/10:00pm 9.4 5.1 5.4 76 1.8 W 17 26 9 14 1024.0 1024.1 0.0
19/09:30pm 10.0 5.2 5.6 74 2.0 W 20 26 11 14 1024.0 1024.1 0.0
19/09:00pm 10.5 4.9 5.5 71 2.3 W 24 30 13 16 1024.0 1024.1 0.0
19/08:30pm 10.4 5.6 5.6 72 2.2 W 20 30 11 16 1023.8 1023.9 0.0
19/08:00pm 10.3 6.1 5.9 74 2.0 W 17 24 9 13 1023.6 1023.7 0.0
19/07:30pm 10.9 6.1 5.4 69 2.5 W 20 28 11 15 1023.3 1023.4 0.0
19/07:00pm 11.3 5.7 5.4 67 2.7 W 24 35 13 19 1022.9 1023.0 0.0
19/06:30pm 11.6 5.7 5.9 68 2.7 W 26 39 14 21 1022.5 1022.6 0.0
19/06:00pm 11.9 6.0 6.0 67 2.8 W 26 41 14 22 1022.3 1022.4 0.0
19/05:30pm 13.1 7.1 6.9 66 3.0 W 28 43 15 23 1022.1 1022.2 0.0
19/05:00pm 13.6 9.0 6.7 63 3.3 W 20 28 11 15 1021.7 1021.8 0.0
19/04:30pm 14.3 7.7 6.2 58 3.9 W 30 41 16 22 1021.3 1021.3 0.0
19/04:00pm 15.7 10.3 6.4 54 4.5 W 24 41 13 22 1021.2 1021.2 0.0
19/03:30pm 15.2 9.9 7.0 58 4.0 WSW 24 33 13 18 1021.1 1021.1 0.0
19/03:00pm 15.4 10.5 6.9 57 4.2 W 22 33 12 18 1021.2 1021.2 0.0
19/02:30pm 14.4 8.4 7.2 62 3.5 WSW 28 37 15 20 1021.4 1021.4 0.0
19/02:00pm 16.0 10.6 6.2 52 4.7 W 24 37 13 20 1021.4 1021.4 0.0
19/01:30pm 13.8 7.7 6.4 61 3.6 WSW 28 39 15 21 1021.7 1021.8 0.0
19/01:00pm 14.5 9.2 6.6 59 3.8 W 24 32 13 17 1021.9 1022.0 0.0
19/12:30pm 14.9 8.8 6.7 58 4.0 WSW 28 43 15 23 1022.3 1022.4 0.0
19/12:02pm 14.1 7.9 6.0 58 3.9 WSW 28 48 15 26 1022.5 1022.6 0.0
19/12:00pm 14.4 8.7 6.7 60 3.7 WSW 26 48 14 26 1022.6 1022.7 0.0
19/11:30am 13.5 7.0 6.4 62 3.4 W 30 39 16 21 1022.7 1022.8 0.0
19/11:00am 13.2 6.6 5.9 61 3.4 W 30 43 16 23 1022.7 1022.8 0.0
19/10:30am 13.1 7.2 5.8 61 3.4 W 26 39 14 21 1022.9 1023.0 0.0
19/10:00am 12.8 6.3 6.4 65 3.0 W 30 44 16 24 1023.2 1023.3 0.0
19/09:30am 12.6 7.1 6.0 64 3.1 W 24 33 13 18 1023.2 1023.3 0.0
19/09:00am 12.2 6.0 6.3 67 2.8 W 28 35 15 19 1023.1 1023.2 1.2
19/08:30am 11.6 6.4 5.7 67 2.7 WNW 22 33 12 18 1023.3 1023.4 1.2
19/08:00am 9.6 6.1 5.4 75 1.9 NW 13 17 7 9 1023.1 1023.2 1.2
19/07:30am 7.2 3.0 3.6 78 1.5 NW 15 19 8 10 1022.9 1023.0 1.2
19/07:00am 6.6 2.3 3.2 79 1.4 NW 15 20 8 11 1022.8 1022.9 1.2
19/06:30am 6.0 1.6 2.6 79 1.4 NW 15 19 8 10 1022.7 1022.8 1.2
19/06:00am 5.7 1.2 2.2 78 1.4 WNW 15 19 8 10 1022.6 1022.7 1.2
19/05:30am 5.3 0.4 2.0 79 1.3 WNW 17 20 9 11 1022.2 1022.3 1.2
19/05:00am 4.8 -0.1 1.8 81 1.2 WNW 17 20 9 11 1022.1 1022.2 1.2
19/04:30am 4.9 0.0 2.1 82 1.1 NW 17 20 9 11 1021.8 1021.9 1.2
19/04:00am 5.2 1.0 1.9 79 1.3 WNW 13 17 7 9 1021.9 1022.0 1.2
19/03:30am 5.3 1.3 2.7 83 1.1 WNW 13 15 7 8 1021.8 1021.9 1.2
19/03:00am 5.1 1.0 2.1 81 1.2 NW 13 15 7 8 1021.9 1022.0 1.2
19/02:30am 5.0 0.5 2.0 81 1.2 WNW 15 19 8 10 1022.0 1022.1 1.2
19/02:00am 5.6 1.1 2.1 78 1.4 WNW 15 19 8 10 1022.3 1022.4 1.2
19/01:30am 5.2 1.1 2.2 81 1.2 WNW 13 17 7 9 1022.5 1022.6 1.2
19/01:00am 5.9 2.3 3.1 82 1.2 NW 11 13 6 7 1022.8 1022.9 1.2
19/12:30am 5.9 1.9 3.1 82 1.2 WNW 13 15 7 8 1022.9 1023.0 1.2
19/12:00am 4.8 1.1 2.5 85 0.9 WNW 11 13 6 7 1023.1 1023.2 1.2
 
Date/Time
EST
Temp
°C
App
Temp
°C
Dew
Point
Rel
Hum
%
Delta-T
°C
Wind Press
QNH
hPa
Press
MSL
hPa
Rain
since 9 am
mm
Dir
 
Spd
km/h
Gust
km/h
Spd
kts
Gust
kts
18/11:30pm 5.1 1.0 2.3 82 1.1 NW 13 15 7 8 1023.1 1023.2 1.2
18/11:00pm 6.2 1.9 3.2 81 1.2 WNW 15 17 8 9 1023.2 1023.3 1.2
18/10:30pm 7.4 2.9 4.0 79 1.5 WNW 17 22 9 12 1023.2 1023.3 1.2
18/10:00pm 7.9 3.5 4.5 79 1.5 W 17 22 9 12 1023.3 1023.4 1.2
18/09:30pm 8.6 3.8 4.8 77 1.7 W 19 26 10 14 1023.2 1023.3 1.2
18/09:00pm 8.9 4.6 5.3 78 1.6 W 17 24 9 13 1023.1 1023.2 1.2
18/08:30pm 9.6 4.4 5.4 75 1.9 W 22 35 12 19 1022.8 1022.9 1.2

Other Formats:

Comma delimited format used in spreadsheet applications
http://www.bom.gov.au/fwo/IDV60801/IDV60801.94912.axf

JavaScript Object Notation format (JSON) in row-major order
http://www.bom.gov.au/fwo/IDV60801/IDV60801.94912.json